sensor_id;sensor_type;location;lat;lon;timestamp;temperature;humidity
52471;DHT22;38382;53.160;7.026;2022-10-31T00:01:38;13.30;99.90
52471;DHT22;38382;53.160;7.026;2022-10-31T00:04:05;13.20;99.90
52471;DHT22;38382;53.160;7.026;2022-10-31T00:06:30;13.20;99.90
52471;DHT22;38382;53.160;7.026;2022-10-31T00:08:58;13.20;99.90
52471;DHT22;38382;53.160;7.026;2022-10-31T00:11:24;13.20;99.90
52471;DHT22;38382;53.160;7.026;2022-10-31T00:13:50;13.10;99.90
52471;DHT22;38382;53.160;7.026;2022-10-31T00:16:18;13.10;99.90
52471;DHT22;38382;53.160;7.026;2022-10-31T00:18:51;13.10;99.90
52471;DHT22;38382;53.160;7.026;2022-10-31T00:21:17;13.10;99.90
52471;DHT22;38382;53.160;7.026;2022-10-31T00:23:43;13.10;99.90
52471;DHT22;38382;53.160;7.026;2022-10-31T00:26:09;13.00;99.90
52471;DHT22;38382;53.160;7.026;2022-10-31T00:28:34;13.00;99.90
52471;DHT22;38382;53.160;7.026;2022-10-31T00:31:06;13.00;99.90
52471;DHT22;38382;53.160;7.026;2022-10-31T00:33:34;12.90;99.90
52471;DHT22;38382;53.160;7.026;2022-10-31T00:36:02;12.90;99.90
52471;DHT22;38382;53.160;7.026;2022-10-31T00:38:28;12.80;99.90
52471;DHT22;38382;53.160;7.026;2022-10-31T00:40:54;12.80;99.90
52471;DHT22;38382;53.160;7.026;2022-10-31T00:43:20;12.80;99.90
52471;DHT22;38382;53.160;7.026;2022-10-31T00:45:46;12.80;99.90
52471;DHT22;38382;53.160;7.026;2022-10-31T00:48:12;12.70;99.90
52471;DHT22;38382;53.160;7.026;2022-10-31T00:50:38;12.70;99.90
52471;DHT22;38382;53.160;7.026;2022-10-31T00:53:04;12.70;99.90
52471;DHT22;38382;53.160;7.026;2022-10-31T00:55:30;12.60;99.90
52471;DHT22;38382;53.160;7.026;2022-10-31T00:57:55;12.60;99.90
52471;DHT22;38382;53.160;7.026;2022-10-31T01:00:21;12.60;99.90
52471;DHT22;38382;53.160;7.026;2022-10-31T01:02:47;12.60;99.90
52471;DHT22;38382;53.160;7.026;2022-10-31T01:05:13;12.50;99.90
52471;DHT22;38382;53.160;7.026;2022-10-31T01:07:40;12.50;99.90
52471;DHT22;38382;53.160;7.026;2022-10-31T01:10:07;12.50;99.90
52471;DHT22;38382;53.160;7.026;2022-10-31T01:12:40;12.40;99.90
52471;DHT22;38382;53.160;7.026;2022-10-31T01:15:07;12.40;99.90
52471;DHT22;38382;53.160;7.026;2022-10-31T01:17:33;12.40;99.90
52471;DHT22;38382;53.160;7.026;2022-10-31T01:19:59;12.40;99.90
52471;DHT22;38382;53.160;7.026;2022-10-31T01:22:25;12.30;99.90
52471;DHT22;38382;53.160;7.026;2022-10-31T01:24:50;12.30;99.90
52471;DHT22;38382;53.160;7.026;2022-10-31T01:27:16;12.30;99.90
52471;DHT22;38382;53.160;7.026;2022-10-31T01:29:41;12.30;99.90
52471;DHT22;38382;53.160;7.026;2022-10-31T01:32:07;12.30;99.90
52471;DHT22;38382;53.160;7.026;2022-10-31T01:34:33;12.30;99.90
52471;DHT22;38382;53.160;7.026;2022-10-31T01:37:00;12.30;99.90
52471;DHT22;38382;53.160;7.026;2022-10-31T01:39:25;12.30;99.90
52471;DHT22;38382;53.160;7.026;2022-10-31T01:41:52;12.30;99.90
52471;DHT22;38382;53.160;7.026;2022-10-31T01:49:30;12.20;99.90
52471;DHT22;38382;53.160;7.026;2022-10-31T01:52:01;12.10;99.90
52471;DHT22;38382;53.160;7.026;2022-10-31T01:54:32;12.20;99.90
52471;DHT22;38382;53.160;7.026;2022-10-31T01:56:59;12.10;99.90
52471;DHT22;38382;53.160;7.026;2022-10-31T01:59:29;12.10;99.90
52471;DHT22;38382;53.160;7.026;2022-10-31T02:01:56;12.10;99.90
52471;DHT22;38382;53.160;7.026;2022-10-31T02:04:23;12.10;99.90
52471;DHT22;38382;53.160;7.026;2022-10-31T02:06:54;12.10;99.90
52471;DHT22;38382;53.160;7.026;2022-10-31T02:09:23;12.10;99.90
52471;DHT22;38382;53.160;7.026;2022-10-31T02:11:54;12.10;99.90
52471;DHT22;38382;53.160;7.026;2022-10-31T02:14:26;12.00;99.90
52471;DHT22;38382;53.160;7.026;2022-10-31T02:16:53;12.00;99.90
52471;DHT22;38382;53.160;7.026;2022-10-31T02:19:48;11.90;99.90
52471;DHT22;38382;53.160;7.026;2022-10-31T02:27:55;11.90;99.90
52471;DHT22;38382;53.160;7.026;2022-10-31T02:30:29;11.90;99.90
52471;DHT22;38382;53.160;7.026;2022-10-31T02:35:59;11.80;99.90
52471;DHT22;38382;53.160;7.026;2022-10-31T02:41:19;11.70;99.90
52471;DHT22;38382;53.160;7.026;2022-10-31T02:44:10;11.60;99.90
52471;DHT22;38382;53.160;7.026;2022-10-31T02:46:49;11.60;99.90
52471;DHT22;38382;53.160;7.026;2022-10-31T02:49:33;11.50;99.90
52471;DHT22;38382;53.160;7.026;2022-10-31T02:52:02;11.50;99.90
52471;DHT22;38382;53.160;7.026;2022-10-31T02:54:28;11.50;99.90
52471;DHT22;38382;53.160;7.026;2022-10-31T02:57:01;11.40;99.90
52471;DHT22;38382;53.160;7.026;2022-10-31T02:59:29;11.40;99.90
52471;DHT22;38382;53.160;7.026;2022-10-31T03:04:59;11.40;99.90
52471;DHT22;38382;53.160;7.026;2022-10-31T03:10:31;11.30;99.90
52471;DHT22;38382;53.160;7.026;2022-10-31T03:13:00;11.20;99.90
52471;DHT22;38382;53.160;7.026;2022-10-31T03:15:31;11.20;99.90
52471;DHT22;38382;53.160;7.026;2022-10-31T03:18:17;11.20;99.90
52471;DHT22;38382;53.160;7.026;2022-10-31T03:21:09;11.20;99.90
52471;DHT22;38382;53.160;7.026;2022-10-31T03:23:37;11.10;99.90
52471;DHT22;38382;53.160;7.026;2022-10-31T03:26:06;11.10;99.90
52471;DHT22;38382;53.160;7.026;2022-10-31T03:28:59;11.10;99.90
52471;DHT22;38382;53.160;7.026;2022-10-31T03:31:31;11.00;99.90
52471;DHT22;38382;53.160;7.026;2022-10-31T03:34:00;11.00;99.90
52471;DHT22;38382;53.160;7.026;2022-10-31T03:36:28;11.00;99.90
52471;DHT22;38382;53.160;7.026;2022-10-31T03:38:57;11.00;99.90
52471;DHT22;38382;53.160;7.026;2022-10-31T03:41:28;10.90;99.90
52471;DHT22;38382;53.160;7.026;2022-10-31T03:44:03;10.90;99.90
52471;DHT22;38382;53.160;7.026;2022-10-31T03:46:30;10.90;99.90
52471;DHT22;38382;53.160;7.026;2022-10-31T03:48:56;10.80;99.90
52471;DHT22;38382;53.160;7.026;2022-10-31T03:51:26;10.80;99.90
52471;DHT22;38382;53.160;7.026;2022-10-31T03:54:22;10.80;99.90
52471;DHT22;38382;53.160;7.026;2022-10-31T03:57:26;10.80;99.90
52471;DHT22;38382;53.160;7.026;2022-10-31T04:02:30;10.70;99.90
52471;DHT22;38382;53.160;7.026;2022-10-31T04:04:56;10.70;99.90
52471;DHT22;38382;53.160;7.026;2022-10-31T04:07:27;10.60;99.90
52471;DHT22;38382;53.160;7.026;2022-10-31T04:09:53;10.60;99.90
52471;DHT22;38382;53.160;7.026;2022-10-31T04:12:20;10.60;99.90
52471;DHT22;38382;53.160;7.026;2022-10-31T04:14:48;10.60;99.90
52471;DHT22;38382;53.160;7.026;2022-10-31T04:17:18;10.50;99.90
52471;DHT22;38382;53.160;7.026;2022-10-31T04:19:45;10.60;99.90
52471;DHT22;38382;53.160;7.026;2022-10-31T04:22:11;10.50;99.90
52471;DHT22;38382;53.160;7.026;2022-10-31T04:24:39;10.40;99.90
52471;DHT22;38382;53.160;7.026;2022-10-31T04:27:05;10.40;99.90
52471;DHT22;38382;53.160;7.026;2022-10-31T04:29:30;10.40;99.90
52471;DHT22;38382;53.160;7.026;2022-10-31T04:31:56;10.40;99.90
52471;DHT22;38382;53.160;7.026;2022-10-31T04:34:22;10.30;99.90
52471;DHT22;38382;53.160;7.026;2022-10-31T04:36:47;10.40;99.90
52471;DHT22;38382;53.160;7.026;2022-10-31T04:39:13;10.30;99.90
52471;DHT22;38382;53.160;7.026;2022-10-31T04:41:39;10.30;99.90
52471;DHT22;38382;53.160;7.026;2022-10-31T04:44:04;10.30;99.90
52471;DHT22;38382;53.160;7.026;2022-10-31T04:46:30;10.30;99.90
52471;DHT22;38382;53.160;7.026;2022-10-31T04:48:56;10.30;99.90
52471;DHT22;38382;53.160;7.026;2022-10-31T04:51:22;10.20;99.90
52471;DHT22;38382;53.160;7.026;2022-10-31T04:53:47;10.20;99.90
52471;DHT22;38382;53.160;7.026;2022-10-31T04:56:13;10.20;99.90
52471;DHT22;38382;53.160;7.026;2022-10-31T04:58:39;10.20;99.90
52471;DHT22;38382;53.160;7.026;2022-10-31T05:01:05;10.10;99.90
52471;DHT22;38382;53.160;7.026;2022-10-31T05:03:30;10.20;99.90
52471;DHT22;38382;53.160;7.026;2022-10-31T05:05:56;10.10;99.90
52471;DHT22;38382;53.160;7.026;2022-10-31T05:08:22;10.10;99.90
52471;DHT22;38382;53.160;7.026;2022-10-31T05:10:47;10.10;99.90
52471;DHT22;38382;53.160;7.026;2022-10-31T05:13:13;10.00;99.90
52471;DHT22;38382;53.160;7.026;2022-10-31T05:15:41;10.00;99.90
52471;DHT22;38382;53.160;7.026;2022-10-31T05:18:06;10.00;99.90
52471;DHT22;38382;53.160;7.026;2022-10-31T05:20:32;10.00;99.90
52471;DHT22;38382;53.160;7.026;2022-10-31T05:22:58;10.00;99.90
52471;DHT22;38382;53.160;7.026;2022-10-31T05:25:26;10.00;99.90
52471;DHT22;38382;53.160;7.026;2022-10-31T05:27:53;10.00;99.90
52471;DHT22;38382;53.160;7.026;2022-10-31T05:30:22;10.00;99.90
52471;DHT22;38382;53.160;7.026;2022-10-31T05:32:49;9.90;99.90
52471;DHT22;38382;53.160;7.026;2022-10-31T05:35:24;9.90;99.90
52471;DHT22;38382;53.160;7.026;2022-10-31T05:37:50;9.90;99.90
52471;DHT22;38382;53.160;7.026;2022-10-31T05:40:17;9.90;99.90
52471;DHT22;38382;53.160;7.026;2022-10-31T05:42:43;9.90;99.90
52471;DHT22;38382;53.160;7.026;2022-10-31T05:45:12;9.90;99.90
52471;DHT22;38382;53.160;7.026;2022-10-31T05:47:38;9.90;99.90
52471;DHT22;38382;53.160;7.026;2022-10-31T05:50:05;10.00;99.90
52471;DHT22;38382;53.160;7.026;2022-10-31T05:52:32;9.90;99.90
52471;DHT22;38382;53.160;7.026;2022-10-31T05:54:57;9.90;99.90
52471;DHT22;38382;53.160;7.026;2022-10-31T05:57:23;9.90;99.90
52471;DHT22;38382;53.160;7.026;2022-10-31T05:59:49;9.90;99.90
52471;DHT22;38382;53.160;7.026;2022-10-31T06:02:19;9.80;99.90
52471;DHT22;38382;53.160;7.026;2022-10-31T06:04:45;9.80;99.90
52471;DHT22;38382;53.160;7.026;2022-10-31T06:07:10;9.80;99.90
52471;DHT22;38382;53.160;7.026;2022-10-31T06:09:36;9.80;99.90
52471;DHT22;38382;53.160;7.026;2022-10-31T06:12:02;9.80;99.90
52471;DHT22;38382;53.160;7.026;2022-10-31T06:14:27;9.70;99.90
52471;DHT22;38382;53.160;7.026;2022-10-31T06:16:55;9.70;99.90
52471;DHT22;38382;53.160;7.026;2022-10-31T06:19:20;9.70;99.90
52471;DHT22;38382;53.160;7.026;2022-10-31T06:21:46;9.60;99.90
52471;DHT22;38382;53.160;7.026;2022-10-31T06:24:12;9.60;99.90
52471;DHT22;38382;53.160;7.026;2022-10-31T06:26:38;9.60;99.90
52471;DHT22;38382;53.160;7.026;2022-10-31T06:29:03;9.60;99.90
52471;DHT22;38382;53.160;7.026;2022-10-31T06:31:29;9.60;99.90
52471;DHT22;38382;53.160;7.026;2022-10-31T06:33:56;9.60;99.90
52471;DHT22;38382;53.160;7.026;2022-10-31T06:36:21;9.60;99.90
52471;DHT22;38382;53.160;7.026;2022-10-31T06:38:47;9.60;99.90
52471;DHT22;38382;53.160;7.026;2022-10-31T06:41:13;9.60;99.90
52471;DHT22;38382;53.160;7.026;2022-10-31T06:43:38;9.50;99.90
52471;DHT22;38382;53.160;7.026;2022-10-31T06:46:05;9.50;99.90
52471;DHT22;38382;53.160;7.026;2022-10-31T06:48:31;9.60;99.90
52471;DHT22;38382;53.160;7.026;2022-10-31T06:51:00;9.60;99.90
52471;DHT22;38382;53.160;7.026;2022-10-31T06:53:27;9.50;99.90
52471;DHT22;38382;53.160;7.026;2022-10-31T06:55:58;9.60;99.90
52471;DHT22;38382;53.160;7.026;2022-10-31T06:58:23;9.60;99.90
52471;DHT22;38382;53.160;7.026;2022-10-31T07:00:49;9.60;99.90
52471;DHT22;38382;53.160;7.026;2022-10-31T07:03:15;9.60;99.90
52471;DHT22;38382;53.160;7.026;2022-10-31T07:05:42;9.60;99.90
52471;DHT22;38382;53.160;7.026;2022-10-31T07:08:11;9.70;99.90
52471;DHT22;38382;53.160;7.026;2022-10-31T07:10:38;9.70;99.90
52471;DHT22;38382;53.160;7.026;2022-10-31T07:13:08;9.70;99.90
52471;DHT22;38382;53.160;7.026;2022-10-31T07:15:36;9.70;99.90
52471;DHT22;38382;53.160;7.026;2022-10-31T07:18:03;9.70;99.90
52471;DHT22;38382;53.160;7.026;2022-10-31T07:20:30;9.70;99.90
52471;DHT22;38382;53.160;7.026;2022-10-31T07:22:56;9.70;99.90
52471;DHT22;38382;53.160;7.026;2022-10-31T07:25:22;9.70;99.90
52471;DHT22;38382;53.160;7.026;2022-10-31T07:27:48;9.80;99.90
52471;DHT22;38382;53.160;7.026;2022-10-31T07:30:15;9.80;99.90
52471;DHT22;38382;53.160;7.026;2022-10-31T07:32:44;9.80;99.90
52471;DHT22;38382;53.160;7.026;2022-10-31T07:35:13;9.80;99.90
52471;DHT22;38382;53.160;7.026;2022-10-31T07:37:39;9.80;99.90
52471;DHT22;38382;53.160;7.026;2022-10-31T07:40:06;9.70;99.90
52471;DHT22;38382;53.160;7.026;2022-10-31T07:42:40;9.80;99.90
52471;DHT22;38382;53.160;7.026;2022-10-31T07:45:11;9.80;99.90
52471;DHT22;38382;53.160;7.026;2022-10-31T07:47:45;9.90;99.90
52471;DHT22;38382;53.160;7.026;2022-10-31T07:50:14;9.90;99.90
52471;DHT22;38382;53.160;7.026;2022-10-31T07:52:40;9.90;99.90
52471;DHT22;38382;53.160;7.026;2022-10-31T07:55:06;9.90;99.90
52471;DHT22;38382;53.160;7.026;2022-10-31T07:57:33;10.00;99.90
52471;DHT22;38382;53.160;7.026;2022-10-31T07:59:58;10.00;99.90
52471;DHT22;38382;53.160;7.026;2022-10-31T08:02:24;10.00;99.90
52471;DHT22;38382;53.160;7.026;2022-10-31T08:04:50;10.10;99.90
52471;DHT22;38382;53.160;7.026;2022-10-31T08:07:16;10.10;99.90
52471;DHT22;38382;53.160;7.026;2022-10-31T08:09:42;10.20;99.90
52471;DHT22;38382;53.160;7.026;2022-10-31T08:12:08;10.20;99.90
52471;DHT22;38382;53.160;7.026;2022-10-31T08:14:34;10.30;99.90
52471;DHT22;38382;53.160;7.026;2022-10-31T08:17:00;10.40;99.90
52471;DHT22;38382;53.160;7.026;2022-10-31T08:19:25;10.40;99.90
52471;DHT22;38382;53.160;7.026;2022-10-31T08:21:52;10.50;99.90
52471;DHT22;38382;53.160;7.026;2022-10-31T08:24:20;10.50;99.90
52471;DHT22;38382;53.160;7.026;2022-10-31T08:26:46;10.50;99.90
52471;DHT22;38382;53.160;7.026;2022-10-31T08:29:13;10.60;99.90
52471;DHT22;38382;53.160;7.026;2022-10-31T08:31:40;10.60;99.90
52471;DHT22;38382;53.160;7.026;2022-10-31T08:34:06;10.70;99.90
52471;DHT22;38382;53.160;7.026;2022-10-31T08:36:32;10.80;99.90
52471;DHT22;38382;53.160;7.026;2022-10-31T08:38:58;10.80;99.90
52471;DHT22;38382;53.160;7.026;2022-10-31T08:41:23;10.90;99.90
52471;DHT22;38382;53.160;7.026;2022-10-31T08:43:49;11.00;99.90
52471;DHT22;38382;53.160;7.026;2022-10-31T08:46:15;11.10;99.90
52471;DHT22;38382;53.160;7.026;2022-10-31T08:48:41;11.20;99.90
52471;DHT22;38382;53.160;7.026;2022-10-31T08:51:08;11.30;99.90
52471;DHT22;38382;53.160;7.026;2022-10-31T08:53:34;11.40;99.90
52471;DHT22;38382;53.160;7.026;2022-10-31T08:56:00;11.40;99.90
52471;DHT22;38382;53.160;7.026;2022-10-31T08:58:26;11.50;99.90
52471;DHT22;38382;53.160;7.026;2022-10-31T09:00:53;11.60;99.90
52471;DHT22;38382;53.160;7.026;2022-10-31T09:03:23;11.60;99.90
52471;DHT22;38382;53.160;7.026;2022-10-31T09:05:50;11.70;99.90
52471;DHT22;38382;53.160;7.026;2022-10-31T09:08:16;11.80;99.90
52471;DHT22;38382;53.160;7.026;2022-10-31T09:10:43;12.00;99.90
52471;DHT22;38382;53.160;7.026;2022-10-31T09:13:14;12.00;99.90
52471;DHT22;38382;53.160;7.026;2022-10-31T09:15:42;12.00;99.90
52471;DHT22;38382;53.160;7.026;2022-10-31T09:18:12;12.10;99.90
52471;DHT22;38382;53.160;7.026;2022-10-31T09:20:41;12.20;99.90
52471;DHT22;38382;53.160;7.026;2022-10-31T09:23:13;12.30;99.90
52471;DHT22;38382;53.160;7.026;2022-10-31T09:25:39;12.40;99.90
52471;DHT22;38382;53.160;7.026;2022-10-31T09:28:08;12.50;99.90
52471;DHT22;38382;53.160;7.026;2022-10-31T09:30:35;12.70;99.90
52471;DHT22;38382;53.160;7.026;2022-10-31T09:33:10;12.80;99.90
52471;DHT22;38382;53.160;7.026;2022-10-31T09:35:37;13.00;99.90
52471;DHT22;38382;53.160;7.026;2022-10-31T09:38:09;13.20;99.90
52471;DHT22;38382;53.160;7.026;2022-10-31T09:40:38;13.40;99.90
52471;DHT22;38382;53.160;7.026;2022-10-31T09:43:28;13.50;99.90
52471;DHT22;38382;53.160;7.026;2022-10-31T09:46:13;13.70;99.90
52471;DHT22;38382;53.160;7.026;2022-10-31T09:51:30;14.00;99.90
52471;DHT22;38382;53.160;7.026;2022-10-31T09:54:06;14.10;99.90
52471;DHT22;38382;53.160;7.026;2022-10-31T09:56:36;14.30;99.90
52471;DHT22;38382;53.160;7.026;2022-10-31T09:59:06;14.50;99.90
52471;DHT22;38382;53.160;7.026;2022-10-31T10:01:47;14.70;99.90
52471;DHT22;38382;53.160;7.026;2022-10-31T10:06:47;15.00;99.90
52471;DHT22;38382;53.160;7.026;2022-10-31T10:09:14;15.10;99.90
52471;DHT22;38382;53.160;7.026;2022-10-31T10:20:28;15.40;99.90
52471;DHT22;38382;53.160;7.026;2022-10-31T10:26:17;15.40;99.90
52471;DHT22;38382;53.160;7.026;2022-10-31T10:28:51;15.40;99.90
52471;DHT22;38382;53.160;7.026;2022-10-31T10:31:27;15.50;99.90
52471;DHT22;38382;53.160;7.026;2022-10-31T10:34:18;15.80;99.90
52471;DHT22;38382;53.160;7.026;2022-10-31T10:39:30;15.70;99.90
52471;DHT22;38382;53.160;7.026;2022-10-31T10:41:57;15.70;99.90
52471;DHT22;38382;53.160;7.026;2022-10-31T10:44:47;15.60;99.90
52471;DHT22;38382;53.160;7.026;2022-10-31T10:47:42;15.70;99.90
52471;DHT22;38382;53.160;7.026;2022-10-31T10:50:20;15.60;99.90
52471;DHT22;38382;53.160;7.026;2022-10-31T10:58:01;15.70;99.90
52471;DHT22;38382;53.160;7.026;2022-10-31T11:02:56;16.00;99.90
52471;DHT22;38382;53.160;7.026;2022-10-31T11:05:45;16.00;99.90
52471;DHT22;38382;53.160;7.026;2022-10-31T11:08:27;16.20;99.90
52471;DHT22;38382;53.160;7.026;2022-10-31T11:13:47;16.40;99.90
52471;DHT22;38382;53.160;7.026;2022-10-31T11:16:37;16.50;99.90
52471;DHT22;38382;53.160;7.026;2022-10-31T11:19:19;16.40;99.90
52471;DHT22;38382;53.160;7.026;2022-10-31T11:21:46;16.30;99.90
52471;DHT22;38382;53.160;7.026;2022-10-31T11:24:20;16.20;99.90
52471;DHT22;38382;53.160;7.026;2022-10-31T11:26:48;16.20;99.90
52471;DHT22;38382;53.160;7.026;2022-10-31T11:29:22;16.20;99.90
52471;DHT22;38382;53.160;7.026;2022-10-31T11:31:52;16.10;99.90
52471;DHT22;38382;53.160;7.026;2022-10-31T11:34:34;16.20;99.90
52471;DHT22;38382;53.160;7.026;2022-10-31T11:37:21;16.30;99.90
52471;DHT22;38382;53.160;7.026;2022-10-31T11:40:14;16.40;99.90
52471;DHT22;38382;53.160;7.026;2022-10-31T11:42:42;16.50;99.90
52471;DHT22;38382;53.160;7.026;2022-10-31T11:45:31;16.90;99.90
52471;DHT22;38382;53.160;7.026;2022-10-31T11:47:58;17.10;99.90
52471;DHT22;38382;53.160;7.026;2022-10-31T11:50:39;17.20;99.90
52471;DHT22;38382;53.160;7.026;2022-10-31T11:53:36;17.10;99.90
52471;DHT22;38382;53.160;7.026;2022-10-31T11:56:15;17.30;99.90
52471;DHT22;38382;53.160;7.026;2022-10-31T11:58:41;17.30;99.90
52471;DHT22;38382;53.160;7.026;2022-10-31T12:01:31;17.20;99.90
52471;DHT22;38382;53.160;7.026;2022-10-31T12:04:16;17.20;99.90
52471;DHT22;38382;53.160;7.026;2022-10-31T12:06:44;17.20;99.90
52471;DHT22;38382;53.160;7.026;2022-10-31T12:09:30;17.10;99.90
52471;DHT22;38382;53.160;7.026;2022-10-31T12:12:12;17.10;99.90
52471;DHT22;38382;53.160;7.026;2022-10-31T12:17:40;17.20;99.90
52471;DHT22;38382;53.160;7.026;2022-10-31T12:22:51;17.10;99.90
52471;DHT22;38382;53.160;7.026;2022-10-31T12:36:57;18.20;99.90
52471;DHT22;38382;53.160;7.026;2022-10-31T12:39:49;18.40;99.90
52471;DHT22;38382;53.160;7.026;2022-10-31T12:56:10;18.20;99.90
52471;DHT22;38382;53.160;7.026;2022-10-31T12:58:59;18.10;99.90
52471;DHT22;38382;53.160;7.026;2022-10-31T13:01:30;18.00;99.90
52471;DHT22;38382;53.160;7.026;2022-10-31T13:04:13;17.90;99.90
52471;DHT22;38382;53.160;7.026;2022-10-31T13:06:55;17.80;99.90
52471;DHT22;38382;53.160;7.026;2022-10-31T13:09:37;17.70;99.90
52471;DHT22;38382;53.160;7.026;2022-10-31T13:12:12;17.60;99.90
52471;DHT22;38382;53.160;7.026;2022-10-31T13:14:42;17.50;99.90
52471;DHT22;38382;53.160;7.026;2022-10-31T13:17:37;17.40;99.90
52471;DHT22;38382;53.160;7.026;2022-10-31T13:23:17;17.20;99.90
52471;DHT22;38382;53.160;7.026;2022-10-31T13:25:47;17.10;99.90
52471;DHT22;38382;53.160;7.026;2022-10-31T13:30:50;17.00;99.90
52471;DHT22;38382;53.160;7.026;2022-10-31T13:33:26;16.90;99.90
52471;DHT22;38382;53.160;7.026;2022-10-31T13:36:21;16.90;99.90
52471;DHT22;38382;53.160;7.026;2022-10-31T13:39:44;16.80;99.90
52471;DHT22;38382;53.160;7.026;2022-10-31T13:42:01;16.80;99.90
52471;DHT22;38382;53.160;7.026;2022-10-31T13:44:29;16.70;99.90
52471;DHT22;38382;53.160;7.026;2022-10-31T13:47:00;16.70;99.90
52471;DHT22;38382;53.160;7.026;2022-10-31T13:49:38;16.70;99.90
52471;DHT22;38382;53.160;7.026;2022-10-31T13:52:12;16.70;99.90
52471;DHT22;38382;53.160;7.026;2022-10-31T13:54:41;16.70;99.90
52471;DHT22;38382;53.160;7.026;2022-10-31T13:57:37;16.70;99.90
52471;DHT22;38382;53.160;7.026;2022-10-31T14:00:25;16.70;99.90
52471;DHT22;38382;53.160;7.026;2022-10-31T14:02:57;16.80;99.90
52471;DHT22;38382;53.160;7.026;2022-10-31T14:05:34;16.80;99.90
52471;DHT22;38382;53.160;7.026;2022-10-31T14:08:03;16.80;99.90
52471;DHT22;38382;53.160;7.026;2022-10-31T14:10:33;16.80;99.90
52471;DHT22;38382;53.160;7.026;2022-10-31T14:13:22;16.80;99.90
52471;DHT22;38382;53.160;7.026;2022-10-31T14:16:01;16.80;99.90
52471;DHT22;38382;53.160;7.026;2022-10-31T14:18:41;16.80;99.90
52471;DHT22;38382;53.160;7.026;2022-10-31T14:23:51;16.70;99.90
52471;DHT22;38382;53.160;7.026;2022-10-31T14:26:21;16.60;99.90
52471;DHT22;38382;53.160;7.026;2022-10-31T14:28:48;16.60;99.90
52471;DHT22;38382;53.160;7.026;2022-10-31T14:31:41;16.60;99.90
52471;DHT22;38382;53.160;7.026;2022-10-31T14:34:30;16.50;99.90
52471;DHT22;38382;53.160;7.026;2022-10-31T14:37:17;16.50;99.90
52471;DHT22;38382;53.160;7.026;2022-10-31T14:51:22;16.40;99.90
52471;DHT22;38382;53.160;7.026;2022-10-31T14:53:50;16.30;99.90
52471;DHT22;38382;53.160;7.026;2022-10-31T14:56:37;16.30;99.90
52471;DHT22;38382;53.160;7.026;2022-10-31T14:59:13;16.30;99.90
52471;DHT22;38382;53.160;7.026;2022-10-31T15:04:44;16.20;99.90
52471;DHT22;38382;53.160;7.026;2022-10-31T15:07:19;16.10;99.90
52471;DHT22;38382;53.160;7.026;2022-10-31T15:09:58;16.10;99.90
52471;DHT22;38382;53.160;7.026;2022-10-31T15:12:33;16.00;99.90
52471;DHT22;38382;53.160;7.026;2022-10-31T15:15:13;16.00;99.90
52471;DHT22;38382;53.160;7.026;2022-10-31T15:17:51;15.90;99.90
52471;DHT22;38382;53.160;7.026;2022-10-31T15:20:23;15.80;99.90
52471;DHT22;38382;53.160;7.026;2022-10-31T15:22:50;15.70;99.90
52471;DHT22;38382;53.160;7.026;2022-10-31T15:25:21;15.70;99.90
52471;DHT22;38382;53.160;7.026;2022-10-31T15:27:48;15.60;99.90
52471;DHT22;38382;53.160;7.026;2022-10-31T15:30:32;15.50;99.90
52471;DHT22;38382;53.160;7.026;2022-10-31T15:32:58;15.50;99.90
52471;DHT22;38382;53.160;7.026;2022-10-31T15:35:28;15.40;99.90
52471;DHT22;38382;53.160;7.026;2022-10-31T15:37:56;15.40;99.90
52471;DHT22;38382;53.160;7.026;2022-10-31T15:40:24;15.30;99.90
52471;DHT22;38382;53.160;7.026;2022-10-31T15:42:57;15.20;99.90
52471;DHT22;38382;53.160;7.026;2022-10-31T15:45:25;15.10;99.90
52471;DHT22;38382;53.160;7.026;2022-10-31T15:48:12;15.10;99.90
52471;DHT22;38382;53.160;7.026;2022-10-31T15:50:44;15.00;99.90
52471;DHT22;38382;53.160;7.026;2022-10-31T15:53:19;14.90;99.90
52471;DHT22;38382;53.160;7.026;2022-10-31T15:55:58;14.80;99.90
52471;DHT22;38382;53.160;7.026;2022-10-31T15:58:25;14.80;99.90
52471;DHT22;38382;53.160;7.026;2022-10-31T16:01:06;14.70;99.90
52471;DHT22;38382;53.160;7.026;2022-10-31T16:03:43;14.60;99.90
52471;DHT22;38382;53.160;7.026;2022-10-31T16:06:20;14.60;99.90
52471;DHT22;38382;53.160;7.026;2022-10-31T16:08:48;14.50;99.90
52471;DHT22;38382;53.160;7.026;2022-10-31T16:11:27;14.40;99.90
52471;DHT22;38382;53.160;7.026;2022-10-31T16:14:05;14.30;99.90
52471;DHT22;38382;53.160;7.026;2022-10-31T16:16:33;14.20;99.90
52471;DHT22;38382;53.160;7.026;2022-10-31T16:19:00;14.10;99.90
52471;DHT22;38382;53.160;7.026;2022-10-31T16:21:36;14.10;99.90
52471;DHT22;38382;53.160;7.026;2022-10-31T16:24:15;14.00;99.90
52471;DHT22;38382;53.160;7.026;2022-10-31T16:26:51;13.90;99.90
52471;DHT22;38382;53.160;7.026;2022-10-31T16:29:32;13.80;99.90
52471;DHT22;38382;53.160;7.026;2022-10-31T16:31:58;13.70;99.90
52471;DHT22;38382;53.160;7.026;2022-10-31T16:34:24;13.70;99.90
52471;DHT22;38382;53.160;7.026;2022-10-31T16:36:50;13.60;99.90
52471;DHT22;38382;53.160;7.026;2022-10-31T16:39:16;13.60;99.90
52471;DHT22;38382;53.160;7.026;2022-10-31T16:45:21;13.60;99.90
52471;DHT22;38382;53.160;7.026;2022-10-31T16:47:48;13.50;99.90
52471;DHT22;38382;53.160;7.026;2022-10-31T16:50:25;13.40;99.90
52471;DHT22;38382;53.160;7.026;2022-10-31T16:52:52;13.40;99.90
52471;DHT22;38382;53.160;7.026;2022-10-31T16:55:19;13.40;99.90
52471;DHT22;38382;53.160;7.026;2022-10-31T16:57:51;13.30;99.90
52471;DHT22;38382;53.160;7.026;2022-10-31T17:00:20;13.30;99.90
52471;DHT22;38382;53.160;7.026;2022-10-31T17:02:47;13.30;99.90
52471;DHT22;38382;53.160;7.026;2022-10-31T17:05:16;13.20;99.90
52471;DHT22;38382;53.160;7.026;2022-10-31T17:07:42;13.20;99.90
52471;DHT22;38382;53.160;7.026;2022-10-31T17:10:09;13.30;99.90
52471;DHT22;38382;53.160;7.026;2022-10-31T17:12:36;13.30;99.90
52471;DHT22;38382;53.160;7.026;2022-10-31T17:15:03;13.30;99.90
52471;DHT22;38382;53.160;7.026;2022-10-31T17:17:30;13.20;99.90
52471;DHT22;38382;53.160;7.026;2022-10-31T17:19:55;13.30;99.90
52471;DHT22;38382;53.160;7.026;2022-10-31T17:22:21;13.30;99.90
52471;DHT22;38382;53.160;7.026;2022-10-31T17:24:47;13.20;99.90
52471;DHT22;38382;53.160;7.026;2022-10-31T17:27:12;13.30;99.90
52471;DHT22;38382;53.160;7.026;2022-10-31T17:29:38;13.30;99.90
52471;DHT22;38382;53.160;7.026;2022-10-31T17:32:04;13.30;99.90
52471;DHT22;38382;53.160;7.026;2022-10-31T17:34:30;13.30;99.90
52471;DHT22;38382;53.160;7.026;2022-10-31T17:36:56;13.40;99.90
52471;DHT22;38382;53.160;7.026;2022-10-31T17:39:21;13.40;99.90
52471;DHT22;38382;53.160;7.026;2022-10-31T17:41:51;13.40;99.90
52471;DHT22;38382;53.160;7.026;2022-10-31T17:44:17;13.40;99.90
52471;DHT22;38382;53.160;7.026;2022-10-31T17:46:49;13.40;99.90
52471;DHT22;38382;53.160;7.026;2022-10-31T17:49:15;13.40;99.90